Time;durP1;ratioP1;P1;durP2;ratioP2;P2;SDS_P1;SDS_P2;PMS_P1;PMS_P2;Temp;Humidity;BMP_temperature;BMP_pressure;BME280_temperature;BME280_humidity;BME280_pressure;Samples;Min_cycle;Max_cycle;Signal;HPM_P1;HPM_P2
2021/03/21 00:01:32;;;;;;;33.75;20.55;;;;;;;0.50;91.83;100180.16;1686963;85;21202;-78
2021/03/21 00:04:38;;;;;;;35.98;21.52;;;;;;;0.54;91.91;100178.11;1687127;85;21721;-78
2021/03/21 00:07:43;;;;;;;31.10;19.20;;;;;;;0.55;91.89;100183.36;1687211;85;21155;-78
2021/03/21 00:10:49;;;;;;;33.50;19.75;;;;;;;0.55;91.92;100178.47;1687197;85;21171;-78
2021/03/21 00:13:53;;;;;;;33.33;18.37;;;;;;;0.53;92.02;100173.22;1687176;85;21711;-78
2021/03/21 00:17:00;;;;;;;29.10;18.82;;;;;;;0.51;92.04;100166.58;1686993;85;21198;-78
2021/03/21 00:20:05;;;;;;;35.78;20.95;;;;;;;0.47;92.10;100159.73;1687172;85;21884;-78
2021/03/21 00:23:11;;;;;;;35.98;18.98;;;;;;;0.45;92.17;100156.78;1687142;85;21317;-78
2021/03/21 00:26:18;;;;;;;32.78;21.02;;;;;;;0.43;92.28;100162.77;1687137;85;21294;-78
2021/03/21 00:29:23;;;;;;;34.03;21.33;;;;;;;0.40;92.37;100152.23;1687144;85;21334;-78
2021/03/21 00:32:28;;;;;;;37.85;23.35;;;;;;;0.36;92.48;100149.39;1686960;85;21975;-79
2021/03/21 00:35:33;;;;;;;37.98;21.40;;;;;;;0.33;92.57;100146.92;1687137;85;21293;-78
2021/03/21 00:38:57;;;;;;;33.08;20.70;;;;;;;0.31;92.67;100147.54;1687160;85;21864;-78
2021/03/21 00:42:02;;;;;;;38.58;23.18;;;;;;;0.27;92.67;100143.36;1687190;85;21289;-78
2021/03/21 00:45:07;;;;;;;34.95;22.05;;;;;;;0.17;92.70;100141.34;1687188;85;21214;-78
2021/03/21 00:48:24;;;;;;;34.50;21.62;;;;;;;0.11;92.76;100133.75;1687156;85;21329;-78
2021/03/21 00:51:30;;;;;;;42.30;20.95;;;;;;;0.08;92.91;100134.45;1687179;85;21277;-78
2021/03/21 00:54:35;;;;;;;37.25;20.68;;;;;;;0.05;93.07;100133.33;1687198;85;22078;-78
2021/03/21 00:57:42;;;;;;;40.38;21.93;;;;;;;0.02;93.13;100133.58;1685472;84;21321;-78
2021/03/21 01:00:50;;;;;;;30.12;20.70;;;;;;;-0.03;93.18;100137.45;1687105;85;21297;-78
2021/03/21 01:03:55;;;;;;;31.12;19.75;;;;;;;-0.06;93.22;100133.64;1687132;85;21844;-78
2021/03/21 01:07:00;;;;;;;30.55;19.37;;;;;;;-0.07;93.23;100137.80;1687174;85;21798;-78
2021/03/21 01:10:07;;;;;;;35.20;21.30;;;;;;;-0.08;93.24;100138.77;1687163;85;21281;-78
2021/03/21 01:13:12;;;;;;;35.83;21.73;;;;;;;-0.11;93.23;100133.61;1687175;85;21325;-78
2021/03/21 01:16:31;;;;;;;28.65;18.50;;;;;;;-0.14;93.21;100137.40;1687217;85;21229;-78
2021/03/21 01:19:37;;;;;;;29.45;17.73;;;;;;;-0.18;93.15;100129.67;1658016;86;21291;-78
2021/03/21 01:22:42;;;;;;;26.35;17.12;;;;;;;-0.23;93.10;100127.80;1687172;85;21288;-78
2021/03/21 01:25:47;;;;;;;37.58;21.37;;;;;;;-0.27;93.09;100127.16;1687082;85;21301;-78
2021/03/21 01:28:52;;;;;;;29.50;17.62;;;;;;;-0.32;93.20;100127.98;1687131;85;21340;-78
2021/03/21 01:31:57;;;;;;;33.10;17.85;;;;;;;-0.37;93.32;100128.31;1687135;85;21250;-78
2021/03/21 01:35:04;;;;;;;25.70;16.42;;;;;;;-0.39;93.47;100128.89;1687228;85;21295;-78
2021/03/21 01:38:09;;;;;;;27.95;18.25;;;;;;;-0.40;93.66;100130.36;1687249;85;21289;-78
2021/03/21 01:41:18;;;;;;;29.80;18.02;;;;;;;-0.44;93.79;100127.02;1687260;85;21285;-78
2021/03/21 01:44:23;;;;;;;;;;;;;;;-0.46;93.88;100128.98;1689725;85;21361;-78
2021/03/21 01:47:43;;;;;;;25.15;17.80;;;;;;;-0.47;93.93;100124.58;1687161;85;20284;-78
2021/03/21 01:50:50;;;;;;;;;;;;;;;-0.49;94.00;100129.19;1689721;85;21305;-78
2021/03/21 01:54:00;;;;;;;33.23;17.82;;;;;;;-0.52;94.03;100127.59;1687249;85;20262;-78
2021/03/21 01:57:06;;;;;;;32.40;17.07;;;;;;;-0.56;94.06;100120.72;1687635;84;21774;-78
2021/03/21 02:00:13;;;;;;;31.25;17.52;;;;;;;-0.56;94.04;100119.88;1687243;85;21289;-78
2021/03/21 02:03:18;;;;;;;24.35;15.30;;;;;;;-0.58;94.05;100127.16;1687088;85;21309;-78
2021/03/21 02:06:47;;;;;;;31.20;16.37;;;;;;;-0.57;94.10;100124.84;1675379;85;21217;-78
2021/03/21 02:10:18;;;;;;;26.52;16.50;;;;;;;-0.55;94.14;100124.27;1687265;85;21167;-78
2021/03/21 02:13:45;;;;;;;32.42;16.37;;;;;;;-0.53;94.14;100123.66;1687235;85;21281;-78
2021/03/21 02:16:57;;;;;;;24.45;15.53;;;;;;;-0.55;94.03;100121.58;1633956;85;21331;-78
2021/03/21 02:20:37;;;;;;;34.45;17.60;;;;;;;-0.56;93.88;100122.06;1687471;85;21338;-78
2021/03/21 02:24:26;;;;;;;27.00;15.90;;;;;;;-0.59;93.76;100119.59;1687252;85;21297;-81
2021/03/21 02:28:01;;;;;;;27.93;16.82;;;;;;;-0.61;93.65;100126.03;1687286;85;21277;-78
2021/03/21 02:31:25;;;;;;;24.50;14.95;;;;;;;-0.64;93.53;100119.55;1687218;85;21182;-78
2021/03/21 02:35:03;;;;;;;27.48;15.58;;;;;;;-0.65;93.46;100121.87;1672390;85;21309;-78
2021/03/21 02:38:32;;;;;;;27.48;16.45;;;;;;;-0.65;93.46;100125.41;1687237;85;21334;-78
2021/03/21 02:41:42;;;;;;;22.95;15.05;;;;;;;-0.63;93.46;100122.60;1657484;86;21181;-78
2021/03/21 02:44:50;;;;;;;21.65;11.68;;;;;;;-0.58;93.50;100123.13;1687335;85;21329;-78
2021/03/21 02:47:56;;;;;;;25.35;15.88;;;;;;;-0.53;93.50;100125.00;1687238;85;21174;-78
2021/03/21 02:51:10;;;;;;;27.15;15.98;;;;;;;-0.45;93.54;100137.41;1687088;85;21885;-78
2021/03/21 02:54:26;;;;;;;24.52;16.27;;;;;;;-0.38;93.54;100140.02;1687089;85;21737;-78
2021/03/21 02:57:33;;;;;;;28.20;15.18;;;;;;;-0.32;93.43;100146.80;1687177;85;21289;-78
2021/03/21 03:00:45;;;;;;;33.30;15.55;;;;;;;-0.29;93.28;100141.18;1687238;85;21149;-78
2021/03/21 03:03:53;;;;;;;27.45;16.73;;;;;;;-0.27;93.16;100136.56;1687120;85;21307;-78
2021/03/21 03:07:08;;;;;;;26.65;15.35;;;;;;;-0.27;93.06;100144.14;1687237;85;21156;-78
2021/03/21 03:10:23;;;;;;;20.85;13.70;;;;;;;-0.24;92.99;100143.53;1675099;85;21284;-78
2021/03/21 03:13:32;;;;;;;25.10;13.85;;;;;;;-0.18;93.02;100145.80;1687233;85;21277;-78
2021/03/21 03:17:00;;;;;;;23.98;14.60;;;;;;;-0.13;92.95;100140.94;1686405;85;21359;-78
2021/03/21 03:20:35;;;;;;;19.12;12.20;;;;;;;-0.11;92.86;100137.16;1687251;85;21327;-79
2021/03/21 03:24:02;;;;;;;22.00;13.53;;;;;;;-0.03;92.82;100141.98;1687182;85;21300;-78
2021/03/21 03:27:23;;;;;;;21.70;14.65;;;;;;;0.01;92.60;100141.27;1687222;85;21327;-79
2021/03/21 03:30:31;;;;;;;18.15;11.30;;;;;;;0.03;92.28;100144.20;1687348;85;21662;-78
2021/03/21 03:33:36;;;;;;;19.07;10.93;;;;;;;0.07;91.95;100145.70;1687185;85;21280;-79
2021/03/21 03:36:41;;;;;;;18.73;11.00;;;;;;;0.07;91.68;100149.73;1687223;85;21284;-78
2021/03/21 03:39:48;;;;;;;23.95;12.93;;;;;;;0.07;91.47;100146.19;1687221;85;21173;-79
2021/03/21 03:43:15;;;;;;;18.92;12.03;;;;;;;0.07;91.29;100152.91;1687144;85;21799;-78
2021/03/21 03:46:45;;;;;;;24.00;13.48;;;;;;;0.10;91.23;100148.17;1687193;85;21253;-79
2021/03/21 03:50:08;;;;;;;23.60;12.27;;;;;;;0.14;91.08;100155.05;1687403;85;21308;-79
2021/03/21 03:53:44;;;;;;;19.32;10.75;;;;;;;0.17;90.87;100152.11;1685853;84;21242;-79
2021/03/21 03:56:56;;;;;;;21.23;12.68;;;;;;;0.18;90.65;100155.66;1687139;85;21161;-79
2021/03/21 04:00:16;;;;;;;19.10;11.80;;;;;;;0.20;90.62;100163.14;1705346;83;21808;-79
2021/03/21 04:03:49;;;;;;;21.75;12.35;;;;;;;0.23;90.52;100158.38;1727172;83;21272;-78
2021/03/21 04:07:03;;;;;;;20.82;12.70;;;;;;;0.23;90.29;100159.72;1727159;83;21292;-79
2021/03/21 04:10:32;;;;;;;21.15;12.13;;;;;;;0.29;90.27;100162.95;1727179;83;21264;-78
2021/03/21 04:14:00;;;;;;;24.20;12.47;;;;;;;0.34;90.17;100168.35;1727061;83;21815;-79
2021/03/21 04:17:36;;;;;;;14.70;10.23;;;;;;;0.41;90.11;100163.36;1727221;83;21336;-79
2021/03/21 04:20:45;;;;;;;17.23;9.20;;;;;;;0.50;89.95;100168.05;1727024;83;21241;-78
2021/03/21 04:24:06;;;;;;;18.48;12.07;;;;;;;0.51;89.49;100167.92;1727248;83;21700;-78
2021/03/21 04:27:09;;;;;;;18.32;11.45;;;;;;;0.51;89.19;100172.45;1691235;83;21713;-78
2021/03/21 04:30:10;;;;;;;19.02;11.78;;;;;;;0.55;89.13;100173.94;1727177;83;21789;-79
2021/03/21 04:33:18;;;;;;;16.02;10.98;;;;;;;0.59;88.90;100172.73;1727166;83;21303;-79
2021/03/21 04:36:32;;;;;;;16.25;10.68;;;;;;;0.62;88.79;100175.70;1727057;83;21296;-78
2021/03/21 04:39:40;;;;;;;17.25;10.28;;;;;;;0.63;88.59;100171.54;1727114;83;21212;-78
2021/03/21 04:43:02;;;;;;;20.08;11.70;;;;;;;0.61;88.47;100170.81;1727270;83;21812;-78
2021/03/21 04:46:10;;;;;;;17.82;9.98;;;;;;;0.64;88.50;100167.86;1727145;83;21376;-79
2021/03/21 04:49:15;;;;;;;21.20;10.72;;;;;;;0.73;88.51;100169.86;1714373;83;21323;-79
2021/03/21 04:52:34;;;;;;;14.40;9.03;;;;;;;0.78;88.34;100166.81;1727105;83;21141;-78
2021/03/21 04:55:47;;;;;;;13.43;8.93;;;;;;;0.83;88.14;100170.50;1727147;83;21300;-79
2021/03/21 04:58:56;;;;;;;13.60;9.90;;;;;;;0.86;88.04;100177.01;1727102;83;21271;-78
2021/03/21 05:02:23;;;;;;;14.80;9.95;;;;;;;0.93;87.97;100179.09;1727857;82;21856;-78
2021/03/21 05:05:35;;;;;;;17.20;10.68;;;;;;;1.01;87.91;100180.72;1730279;83;21713;-79
2021/03/21 05:08:59;;;;;;;16.75;10.03;;;;;;;1.09;87.69;100182.83;1730415;83;21331;-79
2021/03/21 05:12:14;;;;;;;15.63;10.45;;;;;;;1.17;87.59;100181.72;1730349;83;21319;-78
2021/03/21 05:15:38;;;;;;;17.98;9.18;;;;;;;1.31;87.33;100183.83;1713696;83;21269;-79
2021/03/21 05:19:08;;;;;;;14.30;9.38;;;;;;;1.42;86.89;100187.41;1669097;85;21198;-79
2021/03/21 05:22:23;;;;;;;;;;;;;;;1.47;86.31;100195.14;1732692;83;21300;-79
2021/03/21 05:25:43;;;;;;;13.03;8.68;;;;;;;1.54;85.91;100185.57;1738350;82;20603;-78
2021/03/21 05:29:27;;;;;;;16.65;9.18;;;;;;;1.60;85.57;100189.16;1738414;82;21134;-78
2021/03/21 05:32:33;;;;;;;14.30;8.60;;;;;;;1.67;85.27;100180.06;1730351;83;21260;-79
2021/03/21 05:35:43;;;;;;;13.28;8.53;;;;;;;1.78;84.83;100186.30;1730314;83;21295;-78
2021/03/21 05:39:00;;;;;;;13.08;8.20;;;;;;;1.85;84.39;100179.09;1730299;83;21689;-78
2021/03/21 05:42:47;;;;;;;14.70;8.73;;;;;;;1.87;84.08;100182.51;1730337;83;21260;-79
2021/03/21 05:46:22;;;;;;;14.35;9.03;;;;;;;1.92;84.03;100181.14;1724394;83;21773;-78
2021/03/21 05:49:54;;;;;;;13.98;8.38;;;;;;;2.00;83.95;100172.45;1730357;83;21323;-79
2021/03/21 05:53:22;;;;;;;14.80;9.88;;;;;;;2.14;83.75;100176.72;1730319;83;21268;-79
2021/03/21 05:56:39;;;;;;;16.07;10.20;;;;;;;2.23;83.44;100177.31;1730441;83;21260;-78
2021/03/21 06:00:09;;;;;;;16.57;10.70;;;;;;;2.27;82.90;100181.48;1730325;83;21311;-78
2021/03/21 06:03:22;;;;;;;18.98;11.30;;;;;;;2.24;82.20;100172.27;1729633;83;21304;-78
2021/03/21 06:07:06;;;;;;;15.80;11.05;;;;;;;2.21;81.97;100175.21;1716314;83;21859;-79
2021/03/21 06:10:28;;;;;;;18.17;10.70;;;;;;;2.21;81.87;100172.05;1728894;82;21701;-78
2021/03/21 06:13:46;;;;;;;16.95;9.45;;;;;;;2.24;81.66;100165.03;1730315;83;21206;-78
2021/03/21 06:17:32;;;;;;;15.05;10.63;;;;;;;2.34;81.81;100165.63;1730258;83;21321;-78
2021/03/21 06:20:52;;;;;;;17.07;10.13;;;;;;;2.41;81.48;100171.74;1730342;83;21260;-78
2021/03/21 06:24:34;;;;;;;18.87;12.47;;;;;;;2.47;81.02;100168.52;1730338;83;21134;-78
2021/03/21 06:28:33;;;;;;;15.80;10.65;;;;;;;2.49;80.36;100173.78;1730280;83;21296;-78
2021/03/21 06:32:15;;;;;;;18.20;12.45;;;;;;;2.52;80.27;100170.84;1730322;83;21272;-79
2021/03/21 06:35:31;;;;;;;21.30;12.88;;;;;;;2.49;79.98;100171.08;1728868;82;21201;-78
2021/03/21 06:38:46;;;;;;;18.82;12.82;;;;;;;2.55;79.87;100172.80;1730279;83;21804;-78
2021/03/21 06:42:13;;;;;;;19.00;13.13;;;;;;;2.61;79.91;100173.27;1728904;82;21161;-79
2021/03/21 06:45:52;;;;;;;14.58;10.72;;;;;;;2.68;79.62;100168.58;1730319;83;21268;-79
2021/03/21 06:49:23;;;;;;;23.15;14.58;;;;;;;2.78;79.78;100167.31;1730325;83;21186;-79
2021/03/21 06:52:48;;;;;;;20.12;13.62;;;;;;;2.85;79.04;100164.44;1730404;83;21308;-79
2021/03/21 06:56:08;;;;;;;24.57;15.95;;;;;;;2.98;78.93;100157.00;1730301;83;21157;-79
2021/03/21 06:59:58;;;;;;;24.92;15.13;;;;;;;3.10;78.37;100161.83;1730323;83;21319;-79
2021/03/21 07:03:39;;;;;;;20.40;14.33;;;;;;;3.26;78.43;100158.18;1728891;83;21169;-79
2021/03/21 07:07:25;;;;;;;16.48;10.70;;;;;;;3.47;77.68;100158.14;1730047;83;21322;-78
2021/03/21 07:11:17;;;;;;;20.43;13.85;;;;;;;3.57;77.54;100158.19;1730393;83;21257;-79
2021/03/21 07:14:53;;;;;;;19.75;13.10;;;;;;;3.50;76.36;100144.36;1730305;83;21264;-79
2021/03/21 07:18:28;;;;;;;17.67;12.50;;;;;;;3.38;76.06;100141.38;1730372;83;21333;-79
2021/03/21 07:22:09;;;;;;;20.68;13.98;;;;;;;3.45;76.56;100141.20;1730324;83;21154;-78
2021/03/21 07:25:21;;;;;;;22.27;14.18;;;;;;;3.53;76.38;100135.98;1730191;83;21308;-79
2021/03/21 07:29:02;;;;;;;20.60;13.88;;;;;;;3.70;76.24;100130.41;1730253;83;21666;-79
2021/03/21 07:32:33;;;;;;;19.20;14.55;;;;;;;3.83;76.07;100126.98;1730270;83;21268;-79
2021/03/21 07:36:08;;;;;;;22.67;14.23;;;;;;;3.92;75.18;100129.86;1730326;83;21260;-79
2021/03/21 07:39:41;;;;;;;20.80;13.48;;;;;;;4.03;73.68;100123.82;1696173;83;21177;-78
2021/03/21 07:42:50;;;;;;;19.77;12.90;;;;;;;4.08;73.31;100124.76;1654251;83;21273;-79
2021/03/21 07:46:10;;;;;;;21.82;12.20;;;;;;;4.08;73.44;100117.49;1730305;83;21265;-79
2021/03/21 07:49:57;;;;;;;14.33;10.05;;;;;;;4.10;73.39;100120.93;1730360;83;21339;-79
2021/03/21 07:53:19;;;;;;;13.50;9.45;;;;;;;4.29;73.77;100119.25;1730260;83;21363;-79
2021/03/21 07:56:47;;;;;;;9.25;6.20;;;;;;;4.45;71.56;100111.41;1730295;83;21307;-79
2021/03/21 07:59:54;;;;;;;17.97;10.63;;;;;;;4.42;68.72;100110.84;1729094;83;21161;-78
2021/03/21 08:03:21;;;;;;;10.88;8.48;;;;;;;4.35;70.33;100103.28;1729270;82;21818;-79
2021/03/21 08:06:35;;;;;;;12.65;8.45;;;;;;;4.22;70.17;100104.05;1730313;83;21331;-79
2021/03/21 08:09:44;;;;;;;11.57;9.03;;;;;;;4.00;69.91;100102.94;1730286;83;21312;-79
2021/03/21 08:12:53;;;;;;;12.43;8.85;;;;;;;3.89;70.22;100104.42;1730302;83;21257;-79
2021/03/21 08:15:59;;;;;;;7.83;6.40;;;;;;;3.88;71.78;100107.63;1730237;83;21308;-79
2021/03/21 08:19:04;;;;;;;10.13;7.33;;;;;;;3.92;71.80;100097.39;1730287;83;21264;-79
2021/03/21 08:22:09;;;;;;;8.05;6.08;;;;;;;4.00;71.26;100101.58;1712847;83;21256;-79
2021/03/21 08:25:36;;;;;;;11.93;9.53;;;;;;;4.02;69.57;100093.70;1730264;83;21308;-79
2021/03/21 08:28:41;;;;;;;10.50;7.42;;;;;;;3.95;69.97;100090.32;1730326;83;21804;-79
2021/03/21 08:31:53;;;;;;;10.75;8.18;;;;;;;3.86;70.27;100093.39;1730257;83;21197;-79
2021/03/21 08:34:59;;;;;;;11.57;7.78;;;;;;;3.83;70.61;100088.25;1730291;83;21201;-79
2021/03/21 08:38:12;;;;;;;12.58;8.60;;;;;;;3.79;70.68;100094.92;1730194;83;21843;-79
2021/03/21 08:41:17;;;;;;;15.70;9.23;;;;;;;3.83;70.83;100095.86;1730375;83;21264;-79
2021/03/21 08:44:49;;;;;;;13.25;8.15;;;;;;;4.02;70.90;100084.73;1730274;83;21154;-79
2021/03/21 08:47:54;;;;;;;14.47;9.13;;;;;;;4.20;69.10;100079.48;1730261;83;21257;-79
2021/03/21 08:51:01;;;;;;;11.28;8.88;;;;;;;4.40;68.25;100078.48;1730198;83;21684;-79
2021/03/21 08:54:31;;;;;;;13.60;9.35;;;;;;;4.64;65.94;100080.76;1730036;83;21307;-79
2021/03/21 08:57:48;;;;;;;10.60;8.00;;;;;;;4.89;66.12;100073.87;1730466;83;21290;-79
2021/03/21 09:00:50;;;;;;;16.02;7.83;;;;;;;5.11;65.27;100071.33;1729328;83;21352;-79
2021/03/21 09:03:58;;;;;;;13.72;8.43;;;;;;;5.22;63.62;100073.00;1728904;82;21241;-79
2021/03/21 09:07:05;;;;;;;10.72;7.80;;;;;;;5.16;62.76;100074.45;1729184;83;21328;-79
2021/03/21 09:10:26;;;;;;;10.63;7.05;;;;;;;5.07;63.79;100076.69;1711128;83;21261;-79
2021/03/21 09:13:33;;;;;;;10.40;7.12;;;;;;;5.11;64.21;100070.83;1730405;83;21267;-79
2021/03/21 09:17:00;;;;;;;10.08;6.80;;;;;;;5.23;64.21;100064.73;1730270;83;21304;-79
2021/03/21 09:20:07;;;;;;;8.05;6.53;;;;;;;5.26;64.16;100063.06;1730299;83;21260;-79
2021/03/21 09:23:35;;;;;;;10.58;6.92;;;;;;;5.33;64.34;100064.20;1730331;83;21260;-79
2021/03/21 09:26:52;;;;;;;9.98;6.33;;;;;;;5.51;63.95;100060.70;1730317;83;21859;-79
2021/03/21 09:29:58;;;;;;;9.23;5.97;;;;;;;5.62;62.21;100060.50;1730146;83;21796;-79
2021/03/21 09:33:08;;;;;;;7.85;5.30;;;;;;;5.71;60.55;100051.45;1729209;83;21291;-79
2021/03/21 09:36:34;;;;;;;6.78;5.37;;;;;;;5.71;57.90;100052.81;1711710;83;21721;-79
2021/03/21 09:39:45;;;;;;;7.12;5.30;;;;;;;5.61;57.62;100052.02;1732317;83;21324;-79
2021/03/21 09:42:54;;;;;;;12.60;8.23;;;;;;;5.51;57.77;100041.22;1732382;83;21276;-80
2021/03/21 09:46:00;;;;;;;13.48;7.30;;;;;;;5.45;58.93;100045.01;1714036;83;21320;-79
2021/03/21 09:49:13;;;;;;;8.50;5.83;;;;;;;5.47;59.70;100045.73;1732271;83;21289;-79
2021/03/21 09:52:37;;;;;;;7.60;5.15;;;;;;;5.48;58.30;100045.57;1732029;83;21887;-79
2021/03/21 09:56:01;;;;;;;7.65;5.15;;;;;;;5.46;55.61;100047.59;1732055;83;21260;-79
2021/03/21 09:59:42;;;;;;;8.10;4.92;;;;;;;5.45;55.55;100045.86;1728915;83;21196;-79
2021/03/21 10:02:54;;;;;;;7.25;5.75;;;;;;;5.43;56.71;100037.53;1731920;83;21351;-79
2021/03/21 10:06:25;;;;;;;6.60;4.80;;;;;;;5.43;56.80;100039.74;1725046;83;21750;-79
2021/03/21 10:09:34;;;;;;;4.85;4.20;;;;;;;5.49;56.88;100028.28;1721451;83;21742;-80
2021/03/21 10:12:45;;;;;;;5.60;4.12;;;;;;;5.68;57.54;100034.61;1721641;83;21263;-80
2021/03/21 10:16:24;;;;;;;5.42;3.95;;;;;;;5.83;56.21;100025.83;1721549;82;21310;-80
2021/03/21 10:19:56;;;;;;;5.87;4.22;;;;;;;5.95;55.42;100024.27;1721007;83;21390;-80
2021/03/21 10:23:03;;;;;;;6.50;4.15;;;;;;;6.04;55.30;100021.99;1719580;83;21204;-80
2021/03/21 10:26:10;;;;;;;8.28;5.87;;;;;;;6.15;55.40;100019.03;1720842;83;21163;-79
2021/03/21 10:29:47;;;;;;;6.78;4.70;;;;;;;6.14;53.14;100024.13;1721185;83;21307;-79
2021/03/21 10:32:58;;;;;;;7.15;5.12;;;;;;;5.90;53.83;100020.63;1721381;83;21172;-79
2021/03/21 10:36:02;;;;;;;9.63;5.83;;;;;;;5.58;53.41;100021.10;1717457;83;21270;-79
2021/03/21 10:39:08;;;;;;;5.72;4.28;;;;;;;5.33;55.30;100015.88;1719882;83;21202;-79
2021/03/21 10:42:17;;;;;;;6.45;3.42;;;;;;;5.09;52.72;100019.98;1721418;83;21262;-79
2021/03/21 10:45:43;;;;;;;6.45;3.83;;;;;;;4.97;51.83;100007.59;1721522;83;21262;-79
2021/03/21 10:48:55;;;;;;;8.90;4.30;;;;;;;4.97;51.96;100002.17;1721371;83;21826;-79
2021/03/21 10:52:38;;;;;;;5.30;4.40;;;;;;;5.06;51.06;99991.80;1721484;83;21814;-79
2021/03/21 10:55:45;;;;;;;4.80;3.80;;;;;;;5.32;50.60;99988.42;1721539;83;21192;-79
2021/03/21 10:59:18;;;;;;;6.25;4.20;;;;;;;5.67;50.06;99986.27;1720004;83;21203;-79
2021/03/21 11:02:31;;;;;;;6.75;4.37;;;;;;;5.89;49.56;99989.91;1721574;83;21164;-79
2021/03/21 11:05:48;;;;;;;5.33;3.95;;;;;;;6.06;49.94;99990.09;1721492;83;21259;-79
2021/03/21 11:08:53;;;;;;;3.85;2.80;;;;;;;6.15;49.93;99990.52;1724093;83;21258;-79
2021/03/21 11:11:58;;;;;;;4.83;3.58;;;;;;;6.13;45.64;99989.84;1714292;84;21231;-79
2021/03/21 11:15:03;;;;;;;3.52;3.05;;;;;;;6.00;46.69;99982.58;1724046;82;21267;-79
2021/03/21 11:18:30;;;;;;;2.95;2.62;;;;;;;5.98;46.81;99977.81;1714287;84;21156;-79
2021/03/21 11:21:43;;;;;;;5.30;3.30;;;;;;;6.01;46.31;99976.98;1724105;83;21668;-79
2021/03/21 11:24:49;;;;;;;6.75;4.00;;;;;;;6.00;44.77;99975.79;1714294;84;21172;-79
2021/03/21 11:27:55;;;;;;;5.00;3.87;;;;;;;5.88;46.51;99980.07;1724178;83;21220;-79
2021/03/21 11:31:03;;;;;;;4.95;3.42;;;;;;;5.80;47.99;99976.41;1714335;84;21188;-79
2021/03/21 11:34:35;;;;;;;7.42;4.83;;;;;;;5.71;49.47;99971.40;1723944;83;21738;-79
2021/03/21 11:37:42;;;;;;;7.15;5.25;;;;;;;5.59;50.26;99967.19;1714335;84;21255;-79
2021/03/21 11:40:46;;;;;;;7.90;4.53;;;;;;;5.29;49.11;99958.38;1724111;83;21309;-79
2021/03/21 11:43:52;;;;;;;4.72;3.62;;;;;;;5.02;49.32;99948.36;1714359;84;21259;-79
2021/03/21 11:46:59;;;;;;;6.37;4.03;;;;;;;4.83;50.74;99949.80;1724066;83;21687;-79
2021/03/21 11:50:05;;;;;;;7.92;4.55;;;;;;;4.77;50.84;99945.84;1714141;84;21258;-79
2021/03/21 11:53:12;;;;;;;7.72;3.95;;;;;;;4.81;49.85;99945.89;1724056;83;21187;-79
2021/03/21 11:56:38;;;;;;;7.87;4.05;;;;;;;4.90;50.98;99946.02;1714258;84;21303;-79
2021/03/21 11:59:59;;;;;;;6.50;4.10;;;;;;;4.95;52.63;99946.42;1724100;83;21212;-79
2021/03/21 12:03:25;;;;;;;7.62;3.87;;;;;;;4.93;50.94;99953.83;1714097;84;21200;-79
2021/03/21 12:07:01;;;;;;;5.80;3.85;;;;;;;4.95;51.02;99949.13;1714155;83;21191;-79
2021/03/21 12:10:07;;;;;;;5.03;3.90;;;;;;;5.05;51.64;99942.66;1724115;83;21271;-79
2021/03/21 12:13:39;;;;;;;5.12;3.85;;;;;;;5.17;50.98;99941.94;1724014;83;21297;-79
2021/03/21 12:16:49;;;;;;;5.92;3.80;;;;;;;5.32;50.55;99938.25;1714262;83;21184;-79
2021/03/21 12:19:55;;;;;;;6.00;4.10;;;;;;;5.34;51.08;99939.78;1724298;83;22257;-79
2021/03/21 12:22:59;;;;;;;5.10;3.67;;;;;;;5.33;52.29;99936.73;1714330;84;21424;-79
2021/03/21 12:26:25;;;;;;;5.97;4.60;;;;;;;5.29;52.24;99927.19;1714237;84;21156;-79
2021/03/21 12:29:53;;;;;;;7.85;4.15;;;;;;;5.19;51.13;99925.03;1724079;83;21200;-79
2021/03/21 12:32:59;;;;;;;6.15;4.72;;;;;;;5.12;52.07;99925.27;1721336;83;21171;-79
2021/03/21 12:36:15;;;;;;;6.17;4.70;;;;;;;5.03;50.78;99925.66;1714009;84;21327;-79
2021/03/21 12:39:37;;;;;;;8.13;5.15;;;;;;;4.99;50.61;99915.30;1724055;83;21801;-79
2021/03/21 12:42:47;;;;;;;6.17;4.08;;;;;;;4.95;51.00;99924.73;1714332;84;21259;-79
2021/03/21 12:46:15;;;;;;;5.12;3.90;;;;;;;5.03;51.38;99922.95;1724181;83;21324;-79
2021/03/21 12:49:44;;;;;;;6.87;4.95;;;;;;;5.15;52.65;99924.98;1713946;84;21314;-79
2021/03/21 12:52:51;;;;;;;7.17;5.00;;;;;;;5.20;51.98;99913.17;1722503;83;21861;-79
2021/03/21 12:55:56;;;;;;;8.65;5.03;;;;;;;5.16;52.40;99911.77;1714285;84;21156;-79
2021/03/21 12:59:01;;;;;;;7.15;5.37;;;;;;;5.08;51.09;99904.88;1724014;83;21803;-79
2021/03/21 13:02:06;;;;;;;6.78;5.05;;;;;;;4.95;52.18;99900.34;1714299;84;21769;-79
2021/03/21 13:05:14;;;;;;;10.08;6.10;;;;;;;4.83;52.69;99899.16;1723957;83;21341;-79
2021/03/21 13:08:22;;;;;;;6.97;5.22;;;;;;;4.74;52.13;99893.79;1711984;83;21252;-79
2021/03/21 13:11:27;;;;;;;7.78;5.25;;;;;;;4.69;52.93;99899.65;1703648;84;21314;-79
2021/03/21 13:14:33;;;;;;;7.47;5.35;;;;;;;4.74;53.05;99899.20;1703598;84;21256;-79
2021/03/21 13:17:38;;;;;;;11.03;6.50;;;;;;;4.74;51.69;99885.16;1703650;84;21279;-79
2021/03/21 13:20:43;;;;;;;10.30;5.42;;;;;;;4.79;51.43;99890.98;1671677;86;21781;-79
2021/03/21 13:23:50;;;;;;;8.08;5.10;;;;;;;4.86;52.92;99888.54;1703546;84;21811;-79
2021/03/21 13:26:57;;;;;;;6.37;4.72;;;;;;;4.89;51.88;99882.80;1703486;84;21177;-79
2021/03/21 13:30:04;;;;;;;7.70;4.85;;;;;;;4.94;50.44;99876.93;1703743;84;21133;-79
2021/03/21 13:33:11;;;;;;;7.42;4.87;;;;;;;4.99;51.96;99869.23;1703614;84;21338;-79
2021/03/21 13:36:18;;;;;;;5.42;4.37;;;;;;;5.04;51.05;99866.91;1671762;86;21206;-79
2021/03/21 13:39:23;;;;;;;6.90;4.30;;;;;;;5.06;50.28;99868.95;1703744;84;21303;-79
2021/03/21 13:42:28;;;;;;;6.90;4.47;;;;;;;5.01;47.00;99871.27;1703749;84;21314;-79
2021/03/21 13:45:35;;;;;;;6.00;4.47;;;;;;;4.90;48.94;99868.27;1703752;84;21153;-79
2021/03/21 13:48:41;;;;;;;6.58;4.50;;;;;;;4.80;48.82;99866.11;1703726;84;21153;-79
2021/03/21 13:51:47;;;;;;;8.05;4.65;;;;;;;4.73;48.77;99867.70;1671757;86;21360;-78
2021/03/21 13:54:52;;;;;;;6.92;3.95;;;;;;;4.72;48.72;99852.45;1702365;84;21192;-79
2021/03/21 13:57:58;;;;;;;9.28;4.72;;;;;;;4.75;49.69;99857.08;1703658;84;21272;-79
2021/03/21 14:01:04;;;;;;;6.20;4.62;;;;;;;4.77;49.81;99855.56;1703751;84;21216;-79
2021/03/21 14:04:09;;;;;;;6.80;4.60;;;;;;;4.79;50.34;99846.77;1703645;84;21141;-79
2021/03/21 14:07:16;;;;;;;6.45;4.35;;;;;;;4.80;49.35;99849.86;1671657;86;21336;-79
2021/03/21 14:10:22;;;;;;;6.85;4.87;;;;;;;4.81;49.21;99843.42;1703897;83;21331;-79
2021/03/21 14:13:27;;;;;;;7.17;4.12;;;;;;;4.78;48.57;99843.21;1703687;84;21874;-79
2021/03/21 14:16:33;;;;;;;9.75;5.03;;;;;;;4.74;49.04;99848.58;1703704;83;21902;-79
2021/03/21 14:19:38;;;;;;;7.87;5.10;;;;;;;4.71;50.12;99851.61;1671792;86;21292;-79
2021/03/21 14:22:46;;;;;;;5.85;4.35;;;;;;;4.63;50.90;99852.84;1703178;84;21335;-79
2021/03/21 14:25:51;;;;;;;6.80;4.55;;;;;;;4.60;51.06;99846.36;1702820;84;21303;-79
2021/03/21 14:28:56;;;;;;;8.28;5.00;;;;;;;4.53;50.69;99843.41;1702677;84;21192;-79
2021/03/21 14:32:01;;;;;;;12.23;5.00;;;;;;;4.48;50.41;99835.39;1702678;84;21834;-79
2021/03/21 14:35:08;;;;;;;7.60;5.12;;;;;;;4.44;50.81;99833.47;1669495;86;21955;-79
2021/03/21 14:38:19;;;;;;;7.40;5.25;;;;;;;4.41;51.82;99839.17;1701268;84;21319;-79
2021/03/21 14:41:25;;;;;;;9.50;5.90;;;;;;;4.40;52.88;99828.50;1702832;84;21307;-79
2021/03/21 14:44:31;;;;;;;10.70;6.00;;;;;;;4.35;54.31;99837.91;1702028;84;21307;-79
2021/03/21 14:47:36;;;;;;;7.70;5.28;;;;;;;4.27;54.73;99833.73;1702635;84;21751;-79
2021/03/21 14:50:43;;;;;;;8.33;5.62;;;;;;;4.26;54.44;99831.18;1669282;86;21225;-79
2021/03/21 14:53:49;;;;;;;9.08;5.95;;;;;;;4.26;54.44;99826.61;1702320;84;21347;-79
2021/03/21 14:56:55;;;;;;;6.83;4.85;;;;;;;4.24;54.10;99831.34;1702504;84;21196;-79
2021/03/21 15:00:01;;;;;;;8.33;4.78;;;;;;;4.20;53.29;99827.72;1702225;84;21862;-79
2021/03/21 15:03:08;;;;;;;8.75;5.70;;;;;;;4.13;53.09;99831.49;1702204;84;21208;-79
2021/03/21 15:06:14;;;;;;;7.35;4.90;;;;;;;4.10;53.21;99830.45;1670436;86;21351;-79
2021/03/21 15:09:19;;;;;;;6.05;4.08;;;;;;;4.07;52.91;99826.17;1700930;84;21315;-79
2021/03/21 15:12:32;;;;;;;5.90;4.12;;;;;;;4.05;52.89;99822.77;1721097;82;21872;-79